Time;durP1;ratioP1;P1;durP2;ratioP2;P2;SDS_P1;SDS_P2;PMS_P1;PMS_P2;Temp;Humidity;BMP_temperature;BMP_pressure;BME280_temperature;BME280_humidity;BME280_pressure;Samples;Min_cycle;Max_cycle;Signal;HPM_P1;HPM_P2
2022/12/12 00:00:26;;;;;;;;;;;5.40;88.10;;;-151.14;100.00;62537.16;5111122;28;19919;-81
2022/12/12 00:02:54;;;;;;;;;;;5.40;88.00;;;-151.14;100.00;62537.16;5111029;28;19920;-81
2022/12/12 00:05:22;;;;;;;;;;;5.40;87.80;;;-151.14;100.00;62537.16;5110599;28;19926;-81
2022/12/12 00:07:50;;;;;;;;;;;5.40;88.10;;;-151.14;100.00;62537.16;5112076;28;19935;-81
2022/12/12 00:10:17;;;;;;;;;;;5.40;88.60;;;-151.14;100.00;62537.16;5110807;28;20204;-81
2022/12/12 00:12:47;;;;;;;;;;;5.40;88.60;;;-151.14;100.00;62537.16;5110462;28;19919;-81
2022/12/12 00:15:15;;;;;;;;;;;5.40;88.70;;;-151.14;100.00;62537.16;5110165;28;20118;-81
2022/12/12 00:17:43;;;;;;;;;;;5.40;88.70;;;-151.14;100.00;62537.16;5094098;28;19920;-81
2022/12/12 00:20:11;;;;;;;;;;;5.40;88.40;;;-151.14;100.00;62537.16;5110839;28;19920;-81
2022/12/12 00:22:39;;;;;;;;;;;5.40;88.30;;;-151.14;100.00;62537.16;5110814;28;19920;-81
2022/12/12 00:25:08;;;;;;;;;;;5.40;87.90;;;-151.14;100.00;62537.16;5105992;28;19926;-81
2022/12/12 00:27:36;;;;;;;;;;;5.40;88.00;;;-151.14;100.00;62537.16;5091389;28;19927;-81
2022/12/12 00:30:06;;;;;;;;;;;5.40;88.00;;;-151.14;100.00;62537.16;5107229;28;20115;-81
2022/12/12 00:32:34;;;;;;;;;;;5.40;88.20;;;-151.14;100.00;62537.16;5090317;28;19920;-82
2022/12/12 00:35:02;;;;;;;;;;;5.40;88.60;;;-151.14;100.00;62537.16;5106741;28;19921;-81
2022/12/12 00:37:30;;;;;;;;;;;5.40;88.10;;;-151.14;100.00;62537.16;5124137;28;19920;-81
2022/12/12 00:39:58;;;;;;;;;;;5.40;88.10;;;-151.14;100.00;62537.16;5107021;28;19920;-82
2022/12/12 00:42:27;;;;;;;;;;;5.40;87.90;;;-151.14;100.00;62537.16;5090302;28;20208;-81
2022/12/12 00:44:55;;;;;;;;;;;5.40;88.20;;;18.09;100.00;62537.16;5123703;28;20216;-81
2022/12/12 00:47:24;;;;;;;;;;;5.40;88.40;;;-151.14;100.00;62537.16;5106920;28;19927;-81
2022/12/12 00:49:52;;;;;;;;;;;5.40;88.50;;;-151.14;100.00;62537.16;5091052;28;19920;-81
2022/12/12 00:52:20;;;;;;;;;;;5.40;88.60;;;-151.14;100.00;62537.16;5090078;28;19920;-81
2022/12/12 00:54:48;;;;;;;;;;;5.40;88.30;;;-151.14;100.00;62537.16;5089534;28;20116;-81
2022/12/12 00:57:16;;;;;;;;;;;5.40;88.00;;;-151.14;100.00;62537.16;5091062;28;20089;-81
2022/12/12 00:59:44;;;;;;;;;;;5.40;88.00;;;-151.14;100.00;62537.16;5091035;28;19928;-81
2022/12/12 01:02:12;;;;;;;;;;;5.40;88.30;;;18.08;100.00;62537.16;5089867;28;20111;-81
2022/12/12 01:04:41;;;;;;;;;;;5.40;88.30;;;-151.14;100.00;62537.16;5106579;28;19920;-81
2022/12/12 01:07:09;;;;;;;;;;;5.40;87.90;;;-151.14;100.00;62537.16;5090045;28;19920;-81
2022/12/12 01:09:37;;;;;;;;;;;5.40;87.80;;;-151.14;100.00;62537.16;5089578;28;19927;-81
2022/12/12 01:12:05;;;;;;;;;;;5.40;87.90;;;-151.14;100.00;62537.16;5089729;28;19920;-81
2022/12/12 01:14:33;;;;;;;;;;;5.40;87.90;;;-151.14;100.00;62537.16;5106591;28;19927;-81
2022/12/12 01:17:01;;;;;;;;;;;5.40;88.00;;;-151.14;100.00;62537.16;5106371;28;19920;-81
2022/12/12 01:19:29;;;;;;;;;;;5.30;87.80;;;-151.14;100.00;62537.16;5090734;28;19920;-81
2022/12/12 01:21:58;;;;;;;;;;;5.30;88.00;;;-151.14;100.00;62537.16;5089495;28;19934;-81
2022/12/12 01:24:27;;;;;;;;;;;5.30;88.20;;;-151.14;100.00;62537.16;5106279;28;20101;-81
2022/12/12 01:26:54;;;;;;;;;;;5.40;88.30;;;-151.14;100.00;62537.16;5089377;28;20216;-81
2022/12/12 01:29:22;;;;;;;;;;;5.30;88.10;;;-151.14;100.00;62537.16;5089434;28;19924;-81
2022/12/12 01:31:52;;;;;;;;;;;5.30;88.00;;;-151.14;100.00;62537.16;5106650;28;19927;-81
2022/12/12 01:34:20;;;;;;;;;;;5.30;88.00;;;-151.14;100.00;62537.16;5089206;28;20236;-81
2022/12/12 01:36:48;;;;;;;;;;;5.30;87.90;;;-151.14;100.00;62537.16;5108290;28;19932;-81
2022/12/12 01:39:17;;;;;;;;;;;5.30;88.10;;;-151.14;100.00;62537.16;5092926;28;19927;-81
2022/12/12 01:41:45;;;;;;;;;;;5.30;88.30;;;-151.14;100.00;62537.16;5093020;28;19921;-81
2022/12/12 01:44:38;;;;;;;;;;;5.30;88.30;;;-151.14;100.00;62537.16;5092710;28;19927;-81
2022/12/12 01:47:06;;;;;;;;;;;5.30;88.30;;;-151.14;100.00;62537.16;5092996;28;19921;-81
2022/12/12 01:49:34;;;;;;;;;;;5.30;88.10;;;-151.14;100.00;62537.16;5092576;28;19968;-81
2022/12/12 01:52:04;;;;;;;;;;;5.30;88.10;;;-151.14;100.00;62537.16;5092869;28;19920;-81
2022/12/12 01:54:34;;;;;;;;;;;5.30;88.20;;;-151.14;100.00;62537.16;5093701;28;19926;-81
2022/12/12 01:57:04;;;;;;;;;;;5.30;88.20;;;-151.14;100.00;62537.16;5093587;28;19920;-81
2022/12/12 01:59:32;;;;;;;;;;;5.30;88.10;;;-151.14;100.00;62537.16;5109718;28;19920;-81
2022/12/12 02:02:00;;;;;;;;;;;5.30;88.00;;;-151.14;100.00;62537.16;5092749;28;19920;-81
2022/12/12 02:04:28;;;;;;;;;;;5.30;88.00;;;-151.14;100.00;62537.16;5092045;28;19920;-81
2022/12/12 02:06:56;;;;;;;;;;;5.30;88.00;;;-151.14;100.00;62537.16;5093224;28;19927;-81
2022/12/12 02:09:25;;;;;;;;;;;5.30;88.00;;;-151.14;100.00;62537.16;5092566;28;19921;-82
2022/12/12 02:11:55;;;;;;;;;;;5.30;88.00;;;-151.14;100.00;62537.16;5075814;28;20253;-81
2022/12/12 02:14:25;;;;;;;;;;;5.30;88.00;;;-151.14;100.00;62537.16;5092287;28;19927;-81
2022/12/12 02:17:17;;;;;;;;;;;5.30;87.80;;;-151.14;100.00;62537.16;5109147;28;19927;-81
2022/12/12 02:20:27;;;;;;;;;;;5.30;88.00;;;-151.14;100.00;62537.16;5092505;28;19943;-81
2022/12/12 02:23:26;;;;;;;;;;;5.30;88.00;;;-151.14;100.00;62537.16;5092217;28;19926;-81
2022/12/12 02:26:18;;;;;;;;;;;5.30;88.00;;;-151.14;100.00;62537.16;5092026;28;19927;-81
2022/12/12 02:29:12;;;;;;;;;;;5.30;88.00;;;-151.14;100.00;62537.16;5075891;28;19920;-81
2022/12/12 02:31:44;;;;;;;;;;;5.30;88.00;;;-151.14;100.00;62537.16;5092222;28;19920;-81
2022/12/12 02:34:14;;;;;;;;;;;5.30;88.00;;;-151.14;100.00;62537.16;5092038;28;19929;-81
2022/12/12 02:36:46;;;;;;;;;;;5.30;87.80;;;-151.14;100.00;62537.16;5108772;28;20111;-81
2022/12/12 02:39:17;;;;;;;;;;;5.30;87.90;;;-151.14;100.00;62537.16;5091916;28;19926;-81
2022/12/12 02:41:48;;;;;;;;;;;5.30;87.90;;;-151.14;100.00;62537.16;5092572;28;19920;-81
2022/12/12 02:44:19;;;;;;;;;;;5.30;88.00;;;-151.14;100.00;62537.16;5091873;28;19920;-82
2022/12/12 02:46:52;;;;;;;;;;;5.30;88.00;;;-151.14;100.00;62537.16;5092850;28;19927;-82
2022/12/12 02:49:22;;;;;;;;;;;5.30;87.90;;;-151.14;100.00;62537.16;5092357;28;19920;-82
2022/12/12 02:51:51;;;;;;;;;;;5.30;87.90;;;4.07;100.00;62537.16;5093085;28;19931;-81
2022/12/12 02:54:19;;;;;;;;;;;5.30;87.80;;;-151.14;100.00;62537.16;5091560;28;19921;-82
2022/12/12 02:56:55;;;;;;;;;;;5.30;87.90;;;4.06;100.00;62537.16;5091805;28;20097;-81
2022/12/12 02:59:25;;;;;;;;;;;5.30;87.90;;;4.06;100.00;62537.16;5091680;28;19931;-81
2022/12/12 03:02:17;;;;;;;;;;;5.30;87.90;;;4.06;100.00;62537.16;5091662;28;19920;-81
2022/12/12 03:07:48;;;;;;;;;;;5.30;87.80;;;-151.14;100.00;62537.16;5108644;28;19927;-81
2022/12/12 03:10:25;;;;;;;;;;;5.30;87.80;;;-151.14;100.00;62537.16;5074727;28;20119;-81
2022/12/12 03:12:57;;;;;;;;;;;5.30;87.80;;;-151.14;100.00;62537.16;5091508;28;19920;-82
2022/12/12 03:15:26;;;;;;;;;;;5.30;87.80;;;-151.14;100.00;62537.16;5091144;28;19920;-81
2022/12/12 03:17:58;;;;;;;;;;;5.30;87.80;;;-151.14;100.00;62537.16;5091562;28;19926;-82
2022/12/12 03:20:28;;;;;;;;;;;5.30;87.70;;;-151.14;100.00;62537.16;5092180;28;19921;-81
2022/12/12 03:22:57;;;;;;;;;;;5.30;87.70;;;-151.14;100.00;62537.16;5108170;28;19920;-81
2022/12/12 03:25:27;;;;;;;;;;;5.30;87.80;;;-151.14;100.00;62537.16;5090828;28;19920;-82
2022/12/12 03:27:58;;;;;;;;;;;5.30;87.80;;;18.08;100.00;62537.16;5105337;28;19926;-81
2022/12/12 03:30:26;;;;;;;;;;;5.30;87.70;;;-151.14;100.00;62537.16;5094770;28;19926;-82
2022/12/12 03:32:58;;;;;;;;;;;5.30;87.80;;;-151.14;100.00;62537.16;5128621;28;19920;-82
2022/12/12 03:35:27;;;;;;;;;;;5.30;87.70;;;-151.14;100.00;62537.16;5094102;28;19920;-81
2022/12/12 03:37:57;;;;;;;;;;;5.30;87.60;;;-151.14;100.00;62537.16;5111418;28;19920;-82
2022/12/12 03:40:27;;;;;;;;;;;5.30;87.70;;;-151.14;100.00;62537.16;5112523;28;19924;-82
2022/12/12 03:42:58;;;;;;;;;;;5.30;87.60;;;-151.14;100.00;62537.16;5112063;28;19920;-81
2022/12/12 03:45:27;;;;;;;;;;;5.30;87.60;;;-151.14;100.00;62537.16;5111018;28;19920;-82
2022/12/12 03:48:01;;;;;;;;;;;5.30;87.60;;;4.05;100.00;81686.69;5111013;28;19926;-81
2022/12/12 03:50:30;;;;;;;;;;;5.30;87.70;;;-151.14;100.00;62537.16;5111017;28;19927;-81
2022/12/12 03:53:00;;;;;;;;;;;5.30;87.60;;;-151.14;100.00;62537.16;5111270;28;19942;-81
2022/12/12 03:55:30;;;;;;;;;;;5.30;87.60;;;-151.14;100.00;62537.16;5110645;28;19919;-82
2022/12/12 03:57:59;;;;;;;;;;;5.30;87.60;;;-151.14;100.00;62537.16;5110882;28;19920;-81
2022/12/12 04:00:27;;;;;;;;;;;5.30;87.60;;;-151.14;100.00;62537.16;5111121;28;19920;-82
2022/12/12 04:02:58;;;;;;;;;;;5.30;87.60;;;-151.14;100.00;62537.16;5104920;28;19920;-82
2022/12/12 04:05:28;;;;;;;;;;;5.30;87.70;;;-151.14;100.00;62537.16;5111587;28;19919;-81
2022/12/12 04:07:59;;;;;;;;;;;5.30;87.60;;;-151.14;100.00;62537.16;5093959;28;20111;-81
2022/12/12 04:13:15;;;;;;;;;;;5.30;87.60;;;-151.14;100.00;62537.16;5110741;28;19928;-82
2022/12/12 04:15:50;;;;;;;;;;;5.30;87.60;;;-151.14;100.00;62537.16;5093583;28;19926;-82
2022/12/12 04:18:21;;;;;;;;;;;5.30;87.50;;;;;;5090202;28;20208;-82
2022/12/12 04:23:44;;;;;;;;;;;5.30;87.60;;;-151.14;100.00;62537.16;5090291;28;19921;-81
2022/12/12 04:29:03;;;;;;;;;;;5.30;87.50;;;4.04;100.00;62537.16;5107415;28;19927;-82
2022/12/12 04:31:31;;;;;;;;;;;5.30;87.50;;;-151.14;100.00;62537.16;5090386;28;20230;-81
2022/12/12 04:34:02;;;;;;;;;;;5.30;87.50;;;-151.14;100.00;62537.16;5090016;28;19927;-82
2022/12/12 04:36:30;;;;;;;;;;;5.30;87.60;;;-151.14;100.00;62537.16;5090148;28;19920;-81
2022/12/12 04:38:58;;;;;;;;;;;5.30;87.50;;;-151.14;100.00;62537.16;5090196;28;19920;-82
2022/12/12 04:41:26;;;;;;;;;;;5.30;87.50;;;-151.14;100.00;62537.16;5090304;28;19927;-81
2022/12/12 04:43:54;;;;;;;;;;;5.30;87.60;;;-151.14;100.00;62537.16;5093192;28;19934;-82
2022/12/12 04:46:24;;;;;;;;;;;5.30;87.60;;;-151.14;100.00;62537.16;5110096;28;19944;-82
2022/12/12 04:48:52;;;;;;;;;;;5.30;87.60;;;-151.14;100.00;62537.16;5093592;28;19926;-82
2022/12/12 04:51:24;;;;;;;;;;;5.30;87.60;;;-151.14;100.00;62537.16;5110273;28;19934;-82
2022/12/12 04:53:54;;;;;;;;;;;5.30;87.60;;;-151.14;100.00;62537.16;5110057;28;19927;-82
2022/12/12 04:56:24;;;;;;;;;;;5.30;87.70;;;-151.14;100.00;62537.16;5110197;28;19927;-82
2022/12/12 04:58:52;;;;;;;;;;;5.30;87.50;;;-151.14;100.00;62537.16;5093280;28;19926;-82
2022/12/12 05:01:22;;;;;;;;;;;5.30;87.50;;;-151.14;100.00;62537.16;5093370;28;19920;-81
2022/12/12 05:03:51;;;;;;;;;;;5.30;87.60;;;-151.14;100.00;62537.16;5110902;28;20093;-82
2022/12/12 05:06:21;;;;;;;;;;;5.30;87.50;;;18.10;100.00;62537.16;5093078;28;19920;-82
2022/12/12 05:08:51;;;;;;;;;;;5.30;87.50;;;-151.14;100.00;62537.16;5109914;28;19924;-81
2022/12/12 05:11:20;;;;;;;;;;;5.30;87.50;;;-151.14;100.00;62537.16;5112595;28;19920;-81
2022/12/12 05:13:49;;;;;;;;;;;5.30;87.50;;;-151.14;100.00;62537.16;5130900;28;19920;-82
2022/12/12 05:16:18;;;;;;;;;;;5.30;87.50;;;-151.14;100.00;62537.16;5130526;28;19920;-82
2022/12/12 05:18:46;;;;;;;;;;;5.30;87.50;;;18.08;100.00;62537.16;5113338;28;19919;-82
2022/12/12 05:21:14;;;;;;;;;;;5.30;87.30;;;-151.14;100.00;62537.16;5114821;28;19928;-81
2022/12/12 05:23:42;;;;;;;;;;;5.20;87.30;;;-151.14;100.00;62537.16;5114339;28;19926;-81
2022/12/12 05:26:17;;;;;;;;;;;5.20;87.20;;;-151.14;100.00;62537.16;5096303;28;19920;-81
2022/12/12 05:28:45;;;;;;;;;;;5.30;87.40;;;-151.14;100.00;62537.16;5114548;28;19950;-81
2022/12/12 05:31:13;;;;;;;;;;;5.20;87.30;;;-151.14;100.00;62537.16;5096345;28;19919;-81
2022/12/12 05:33:41;;;;;;;;;;;5.30;87.50;;;-151.14;100.00;62537.16;5096264;28;19926;-82
2022/12/12 05:36:09;;;;;;;;;;;5.20;87.30;;;-151.14;100.00;62537.16;5113344;28;19926;-81
2022/12/12 05:38:36;;;;;;;;;;;5.20;87.50;;;-151.14;100.00;62537.16;5114551;28;19924;-81
2022/12/12 05:41:05;;;;;;;;;;;5.20;87.40;;;-151.14;100.00;62537.16;5096356;28;19926;-82
2022/12/12 05:43:34;;;;;;;;;;;5.20;87.40;;;-151.14;100.00;62537.16;5112890;28;19928;-82
2022/12/12 05:46:02;;;;;;;;;;;5.20;87.30;;;-151.14;100.00;62537.16;5096158;28;19927;-81
2022/12/12 05:48:30;;;;;;;;;;;5.20;87.30;;;-151.14;100.00;62537.16;5114217;28;19934;-81
2022/12/12 06:24:02;;;;;;;;;;;5.20;87.20;;;-151.14;100.00;62537.16;5099287;28;19916;-82
2022/12/12 06:26:31;;;;;;;;;;;5.20;87.30;;;-151.14;100.00;62537.16;5075229;28;19934;-82
2022/12/12 06:28:58;;;;;;;;;;;5.20;87.30;;;-151.14;100.00;62537.16;5075453;28;19927;-81
2022/12/12 06:31:26;;;;;;;;;;;5.20;87.30;;;-151.14;100.00;62537.16;5058770;28;19926;-82
2022/12/12 06:33:54;;;;;;;;;;;5.20;87.30;;;-151.14;100.00;62537.16;5093069;28;19935;-82
2022/12/12 06:36:23;;;;;;;;;;;5.20;87.20;;;;;;5074859;28;19927;-81
2022/12/12 06:38:51;;;;;;;;;;;5.20;87.30;;;-151.14;100.00;62537.16;5093197;28;19944;-82
2022/12/12 06:41:20;;;;;;;;;;;5.20;87.20;;;-151.14;100.00;62537.16;5075365;28;19920;-82
2022/12/12 06:43:48;;;;;;;;;;;5.20;87.20;;;-151.14;100.00;62537.16;5075153;28;20120;-81
2022/12/12 06:46:17;;;;;;;;;;;5.20;87.20;;;-151.14;100.00;62537.16;5108656;28;19920;-81
2022/12/12 06:48:46;;;;;;;;;;;5.20;87.20;;;-151.14;100.00;62537.16;5092626;28;19920;-81
2022/12/12 06:51:14;;;;;;;;;;;5.20;87.10;;;-151.14;100.00;62537.16;5088775;28;19926;-82
2022/12/12 06:53:42;;;;;;;;;;;5.20;87.20;;;-151.14;100.00;62537.16;5129182;28;19926;-82
2022/12/12 06:56:12;;;;;;;;;;;5.20;87.20;;;3.97;100.00;81675.44;5112103;28;19926;-81
2022/12/12 06:58:41;;;;;;;;;;;5.20;87.20;;;-151.14;100.00;62537.16;5095140;28;19919;-81
2022/12/12 07:01:11;;;;;;;;;;;5.20;87.10;;;-151.14;100.00;62537.16;5094972;28;19974;-81
2022/12/12 07:03:38;;;;;;;;;;;5.20;87.00;;;-151.14;100.00;62537.16;5112911;28;19974;-82
2022/12/12 07:06:06;;;;;;;;;;;5.20;87.10;;;3.97;100.00;81793.63;5112640;28;19919;-82
2022/12/12 07:08:35;;;;;;;;;;;5.20;87.10;;;-151.14;100.00;62537.16;5094896;28;20212;-82
2022/12/12 07:11:04;;;;;;;;;;;5.20;87.10;;;-151.14;100.00;62537.16;5078255;28;19919;-81
2022/12/12 07:13:32;;;;;;;;;;;5.20;87.10;;;-151.14;100.00;62537.16;5077656;28;19934;-82
2022/12/12 07:16:01;;;;;;;;;;;5.20;87.00;;;-151.14;100.00;62537.16;5077448;28;19920;-82
2022/12/12 07:18:29;;;;;;;;;;;5.20;87.10;;;-151.14;100.00;62537.16;5094872;28;19920;-82
2022/12/12 07:20:57;;;;;;;;;;;5.20;87.00;;;-151.14;100.00;62537.16;5094592;28;19920;-82
2022/12/12 07:23:25;;;;;;;;;;;5.20;87.00;;;-151.14;100.00;62537.16;5077612;28;19920;-82
2022/12/12 07:25:53;;;;;;;;;;;5.20;87.00;;;-151.14;100.00;62537.16;5112586;28;20111;-82
2022/12/12 07:28:21;;;;;;;;;;;5.20;87.00;;;-151.14;100.00;62537.16;5077989;28;20215;-81
2022/12/12 07:30:49;;;;;;;;;;;5.20;86.90;;;-151.14;100.00;62537.16;5112719;28;19926;-81
2022/12/12 07:33:18;;;;;;;;;;;5.20;87.00;;;-151.14;100.00;62537.16;5094461;28;19919;-82
2022/12/12 07:35:46;;;;;;;;;;;5.20;86.90;;;-151.14;100.00;62537.16;5094238;28;19923;-82
2022/12/12 07:38:14;;;;;;;;;;;5.20;86.90;;;-151.14;100.00;62537.16;5094449;28;19926;-82
2022/12/12 07:40:42;;;;;;;;;;;5.20;87.00;;;-151.14;100.00;62537.16;5112616;28;20399;-81
2022/12/12 07:43:10;;;;;;;;;;;5.20;86.90;;;-151.14;100.00;62537.16;5094232;28;19920;-82
2022/12/12 07:45:38;;;;;;;;;;;5.20;86.80;;;-151.14;100.00;62537.16;5093990;28;20088;-82
2022/12/12 07:48:06;;;;;;;;;;;5.20;86.70;;;-151.14;100.00;62537.16;5094148;28;19920;-82
2022/12/12 07:50:36;;;;;;;;;;;5.20;86.80;;;-151.14;100.00;62537.16;5112412;28;19920;-81
2022/12/12 07:53:03;;;;;;;;;;;5.20;86.90;;;7.49;100.00;62537.16;5112360;28;19920;-82
2022/12/12 07:55:31;;;;;;;;;;;5.20;86.80;;;-151.14;100.00;62537.16;5093628;28;19978;-82
2022/12/12 07:57:59;;;;;;;;;;;5.20;86.90;;;-151.14;100.00;62537.16;5112230;28;19920;-82
2022/12/12 08:00:27;;;;;;;;;;;5.20;86.80;;;-151.14;100.00;62537.16;5094242;28;19923;-82
2022/12/12 08:02:55;;;;;;;;;;;5.20;87.00;;;-151.14;100.00;62537.16;5077467;28;19927;-81
2022/12/12 08:05:23;;;;;;;;;;;5.20;87.00;;;-151.14;100.00;62537.16;5076852;28;19927;-82
2022/12/12 08:07:52;;;;;;;;;;;5.20;87.00;;;-151.14;100.00;62537.16;5077153;28;19920;-82
2022/12/12 08:10:20;;;;;;;;;;;5.20;87.00;;;-151.14;100.00;62537.16;5111978;28;19920;-81
2022/12/12 08:12:48;;;;;;;;;;;5.20;86.90;;;-151.14;100.00;62537.16;5076978;28;19920;-82
2022/12/12 08:15:16;;;;;;;;;;;5.20;86.90;;;-151.14;100.00;62537.16;5093615;28;19926;-81
2022/12/12 08:17:44;;;;;;;;;;;5.20;86.90;;;-151.14;100.00;62537.16;5111964;28;19927;-82
2022/12/12 08:20:12;;;;;;;;;;;5.20;87.00;;;-151.14;100.00;62537.16;5093830;28;19919;-81
2022/12/12 08:22:40;;;;;;;;;;;5.20;86.80;;;-151.14;100.00;62537.16;5093883;28;19920;-82
2022/12/12 08:25:10;;;;;;;;;;;5.20;86.80;;;-151.14;100.00;62537.16;5111342;28;19920;-81
2022/12/12 08:27:39;;;;;;;;;;;5.20;86.90;;;-151.14;100.00;62537.16;5093764;28;19920;-81
2022/12/12 08:30:08;;;;;;;;;;;5.20;86.80;;;-151.14;100.00;62537.16;5111699;28;20119;-82
2022/12/12 08:32:36;;;;;;;;;;;5.20;86.90;;;-151.14;100.00;62537.16;5111859;28;19926;-82
2022/12/12 08:35:05;;;;;;;;;;;5.20;86.80;;;-151.14;100.00;62537.16;5076156;28;19920;-82
2022/12/12 08:37:32;;;;;;;;;;;5.20;86.80;;;-151.14;100.00;62537.16;5076714;28;19926;-82
2022/12/12 08:40:00;;;;;;;;;;;5.20;86.80;;;-151.14;100.00;62537.16;5093514;28;19920;-81
2022/12/12 08:42:30;;;;;;;;;;;5.20;86.80;;;-151.14;100.00;62537.16;5076935;28;19933;-81
2022/12/12 08:44:58;;;;;;;;;;;5.20;86.90;;;-151.14;100.00;62537.16;5111163;28;19920;-81
2022/12/12 08:47:26;;;;;;;;;;;5.20;86.70;;;-151.14;100.00;62537.16;5097454;28;20258;-81
2022/12/12 08:49:53;;;;;;;;;;;5.20;87.40;;;-151.14;100.00;62537.16;5076788;28;19926;-81
2022/12/12 08:52:21;;;;;;;;;;;5.30;86.70;;;-151.14;100.00;62537.16;5093890;28;19920;-81
2022/12/12 08:54:49;;;;;;;;;;;5.20;86.60;;;-151.14;100.00;62537.16;5092956;28;20211;-81
2022/12/12 08:57:17;;;;;;;;;;;5.20;86.80;;;-151.14;100.00;62537.16;5111485;28;19919;-81
2022/12/12 08:59:47;;;;;;;;;;;5.20;86.70;;;-151.14;100.00;62537.16;5093464;28;19926;-81
2022/12/12 09:02:15;;;;;;;;;;;5.20;86.70;;;-151.14;100.00;62537.16;5093462;28;19935;-81
2022/12/12 09:04:43;;;;;;;;;;;5.20;86.70;;;-151.14;100.00;62537.16;5076004;28;19927;-82
2022/12/12 09:07:11;;;;;;;;;;;5.20;86.70;;;18.09;100.00;62537.16;5111529;28;19920;-81
2022/12/12 09:09:39;;;;;;;;;;;5.20;86.50;;;-151.14;100.00;62537.16;5093221;28;19920;-81
2022/12/12 09:12:08;;;;;;;;;;;5.20;86.70;;;-151.14;100.00;62537.16;5093378;28;19926;-81
2022/12/12 09:14:35;;;;;;;;;;;5.20;86.60;;;-151.14;100.00;62537.16;5092831;28;19919;-81
2022/12/12 09:17:05;;;;;;;;;;;5.20;86.60;;;-151.14;100.00;62537.16;5109341;28;19927;-81
2022/12/12 09:19:33;;;;;;;;;;;5.20;86.60;;;-151.14;100.00;62537.16;5076307;28;19920;-81
2022/12/12 09:22:01;;;;;;;;;;;5.20;86.70;;;-151.14;100.00;62537.16;5093635;28;20135;-81
2022/12/12 09:24:28;;;;;;;;;;;5.20;86.70;;;3.93;100.00;62537.16;5092889;28;20098;-81
2022/12/12 09:26:56;;;;;;;;;;;5.20;86.60;;;-151.14;100.00;62537.16;5076041;28;20215;-81
2022/12/12 09:29:24;;;;;;;;;;;5.20;86.70;;;-151.14;100.00;62537.16;5110989;28;19923;-81
2022/12/12 09:31:52;;;;;;;;;;;5.20;86.50;;;-151.14;100.00;62537.16;5093156;28;19919;-81
2022/12/12 09:34:22;;;;;;;;;;;5.20;86.70;;;-151.14;100.00;62537.16;5092702;28;20234;-81
2022/12/12 09:36:50;;;;;;;;;;;5.20;86.60;;;-151.14;100.00;62537.16;5076165;28;19924;-81
2022/12/12 09:39:18;;;;;;;;;;;5.20;86.60;;;-151.14;100.00;62537.16;5110778;28;19919;-81
2022/12/12 09:41:46;;;;;;;;;;;5.20;86.60;;;-151.14;100.00;62537.16;5076520;28;20203;-82
2022/12/12 09:44:17;;;;;;;;;;;5.20;86.60;;;-151.14;100.00;62537.16;5110745;28;19926;-81
2022/12/12 09:46:46;;;;;;;;;;;5.20;86.60;;;-151.14;100.00;62537.16;5092723;28;19956;-81
2022/12/12 09:49:17;;;;;;;;;;;5.20;86.70;;;-151.14;100.00;62537.16;5075810;28;19939;-81
2022/12/12 09:51:48;;;;;;;;;;;5.20;86.70;;;-151.14;100.00;62537.16;5093035;28;20212;-81
2022/12/12 09:54:16;;;;;;;;;;;5.20;86.60;;;-151.14;100.00;62537.16;5092490;28;20122;-81
2022/12/12 09:57:12;;;;;;;;;;;5.20;87.50;;;-151.14;100.00;62537.16;5092615;28;19930;-81
2022/12/12 09:59:42;;;;;;;;;;;5.20;86.70;;;3.92;100.00;62537.16;5078054;28;19932;-81
2022/12/12 10:02:24;;;;;;;;;;;5.20;86.70;;;-151.14;100.00;62537.16;5096243;28;19920;-81
2022/12/12 10:04:54;;;;;;;;;;;5.20;86.70;;;-151.14;100.00;62537.16;5078794;28;20345;-81
2022/12/12 10:07:26;;;;;;;;;;;5.20;86.70;;;-151.14;100.00;62537.16;5114294;28;19926;-81
2022/12/12 10:10:00;;;;;;;;;;;5.20;86.80;;;-151.14;100.00;62537.16;5095905;28;20239;-81
2022/12/12 10:12:28;;;;;;;;;;;5.20;86.80;;;-151.14;100.00;62537.16;5095696;28;19920;-81
2022/12/12 10:14:57;;;;;;;;;;;5.20;86.70;;;-151.14;100.00;62537.16;5113094;28;20088;-81
2022/12/12 10:17:27;;;;;;;;;;;5.20;86.60;;;-151.14;100.00;62537.16;5095855;28;20119;-81
2022/12/12 10:19:57;;;;;;;;;;;5.20;86.70;;;-151.14;100.00;62537.16;5095778;28;19920;-82
2022/12/12 10:22:32;;;;;;;;;;;5.20;86.70;;;-151.14;100.00;62537.16;5112719;28;19920;-81
2022/12/12 10:25:02;;;;;;;;;;;5.20;86.70;;;-151.14;100.00;62537.16;5094999;28;19928;-81
2022/12/12 10:27:30;;;;;;;;;;;5.20;86.70;;;-151.14;100.00;62537.16;5095902;28;19920;-81
2022/12/12 10:30:01;;;;;;;;;;;5.20;86.50;;;-151.14;100.00;62537.16;5095684;28;19920;-81
2022/12/12 10:32:34;;;;;;;;;;;5.20;86.60;;;-151.14;100.00;62537.16;5095674;28;19926;-81
2022/12/12 10:35:09;;;;;;;;;;;5.20;86.60;;;-151.14;100.00;62537.16;5078199;28;20118;-81
2022/12/12 10:37:42;;;;;;;;;;;5.20;86.60;;;-151.14;100.00;62537.16;5095492;28;20112;-81
2022/12/12 10:40:18;;;;;;;;;;;5.20;86.70;;;-151.14;100.00;62537.16;5095130;28;19920;-81
2022/12/12 10:42:47;;;;;;;;;;;5.20;86.60;;;-151.14;100.00;62537.16;5095528;28;19919;-82
2022/12/12 10:45:38;;;;;;;;;;;5.20;86.50;;;-151.14;100.00;62537.16;5094769;28;19926;-81
2022/12/12 10:48:06;;;;;;;;;;;5.20;86.50;;;-151.14;100.00;62537.16;5095543;28;19924;-81
2022/12/12 10:50:35;;;;;;;;;;;5.20;86.70;;;-151.14;100.00;62537.16;5113363;28;20123;-81
2022/12/12 10:53:06;;;;;;;;;;;5.20;86.50;;;-151.14;100.00;62537.16;5078735;28;19919;-82
2022/12/12 10:55:37;;;;;;;;;;;5.20;86.50;;;-151.14;100.00;62537.16;5094528;28;19941;-81
2022/12/12 10:58:05;;;;;;;;;;;5.20;86.60;;;-151.14;100.00;62537.16;5095169;28;19920;-81
2022/12/12 11:00:34;;;;;;;;;;;5.20;86.70;;;-151.14;100.00;62537.16;5078305;28;20212;-81
2022/12/12 11:03:12;;;;;;;;;;;5.20;86.70;;;-151.14;100.00;62537.16;5095171;28;20245;-80
2022/12/12 11:05:41;;;;;;;;;;;5.20;86.70;;;-151.14;100.00;62537.16;5094840;28;19920;-81
2022/12/12 11:08:20;;;;;;;;;;;5.20;86.60;;;3.95;100.00;106994.31;5077876;28;19926;-81
2022/12/12 11:11:00;;;;;;;;;;;5.20;86.60;;;-151.14;100.00;62537.16;5095195;28;19920;-81
2022/12/12 11:13:28;;;;;;;;;;;5.20;86.50;;;-151.14;100.00;62537.16;5077905;28;19928;-81
2022/12/12 11:15:58;;;;;;;;;;;5.20;86.50;;;-151.14;100.00;62537.16;5077947;28;19920;-82
2022/12/12 11:18:26;;;;;;;;;;;5.20;86.50;;;-151.14;100.00;62537.16;5095072;28;19927;-81
2022/12/12 11:21:04;;;;;;;;;;;5.20;86.50;;;3.94;100.00;81681.06;5094727;28;19926;-81
2022/12/12 11:23:34;;;;;;;;;;;5.20;86.50;;;-151.14;100.00;62537.16;5094448;28;19934;-82
2022/12/12 11:26:03;;;;;;;;;;;5.20;86.50;;;-151.14;100.00;62537.16;5112636;28;19919;-81
2022/12/12 11:28:32;;;;;;;;;;;5.20;86.40;;;-151.14;100.00;62537.16;5094848;28;20096;-81
2022/12/12 11:31:02;;;;;;;;;;;5.20;86.40;;;-151.14;100.00;62537.16;5094783;28;19920;-82
2022/12/12 11:33:32;;;;;;;;;;;5.20;86.60;;;-151.14;100.00;62537.16;5112455;28;20422;-81
2022/12/12 11:36:02;;;;;;;;;;;5.10;86.50;;;-151.14;100.00;62537.16;5094247;28;19926;-81
2022/12/12 11:38:35;;;;;;;;;;;5.20;86.70;;;3.88;100.00;81662.44;5094440;28;19927;-81
2022/12/12 11:41:04;;;;;;;;;;;5.10;86.70;;;-151.14;100.00;62537.16;5077828;28;20210;-81
2022/12/12 11:43:35;;;;;;;;;;;5.20;86.70;;;-151.14;100.00;62537.16;5077404;28;20021;-82
2022/12/12 11:46:06;;;;;;;;;;;5.20;86.70;;;-151.14;100.00;62537.16;5112320;28;19919;-81
2022/12/12 11:48:40;;;;;;;;;;;5.20;86.70;;;-151.14;100.00;62537.16;5112494;28;19920;-81
2022/12/12 11:51:08;;;;;;;;;;;5.20;86.60;;;-151.14;100.00;62537.16;5112579;28;19920;-81
2022/12/12 11:53:38;;;;;;;;;;;5.20;86.60;;;-151.14;100.00;62537.16;5093970;28;19919;-81
2022/12/12 11:56:17;;;;;;;;;;;5.20;86.70;;;-151.14;100.00;62537.16;5093850;28;19920;-81
2022/12/12 11:58:46;;;;;;;;;;;5.20;86.70;;;-151.14;100.00;62537.16;5077545;28;19919;-81
2022/12/12 12:01:17;;;;;;;;;;;5.20;86.50;;;-151.14;100.00;62537.16;5094016;28;19926;-81